Time;durP1;ratioP1;P1;durP2;ratioP2;P2;SDS_P1;SDS_P2;PMS_P1;PMS_P2;Temp;Humidity;BMP_temperature;BMP_pressure;BME280_temperature;BME280_humidity;BME280_pressure;Samples;Min_cycle;Max_cycle;Signal;HPM_P1;HPM_P2
2023/03/21 00:01:51;;;;;;;82.10;37.10;;;;;;;15.39;32.35;99940.20;108341;1251;61195;-63
2023/03/21 00:04:22;;;;;;;89.90;38.30;;;;;;;15.22;32.59;99938.54;108429;1253;60626;-65
2023/03/21 00:06:51;;;;;;;96.50;39.90;;;;;;;15.20;32.52;99934.57;108299;1250;71612;-65
2023/03/21 00:09:20;;;;;;;90.50;39.30;;;;;;;15.28;32.39;99937.11;108287;1253;70263;-65
2023/03/21 00:11:52;;;;;;;;;;;;;;;15.23;32.40;99935.45;108195;1250;71921;-65
2023/03/21 00:14:20;;;;;;;80.20;32.90;;;;;;;14.97;32.69;99935.71;108160;1250;62412;-66
2023/03/21 00:16:49;;;;;;;88.50;36.90;;;;;;;14.97;32.74;99930.45;108287;1250;61904;-65
2023/03/21 00:19:19;;;;;;;87.80;38.00;;;;;;;14.92;32.81;99930.03;108219;1250;72880;-65
2023/03/21 00:21:51;;;;;;;91.80;39.60;;;;;;;14.88;32.83;99926.88;108239;1251;69743;-65
2023/03/21 00:24:39;;;;;;;102.20;42.90;;;;;;;14.93;32.79;99924.63;108168;1250;73939;-65
2023/03/21 00:27:07;;;;;;;81.80;36.10;;;;;;;14.91;32.83;99926.02;108277;1250;61270;-66
2023/03/21 00:29:55;;;;;;;110.40;44.10;;;;;;;14.74;33.02;99923.46;108230;1251;61334;-65
2023/03/21 00:32:27;;;;;;;108.80;45.80;;;;;;;14.58;33.19;99924.57;108219;1254;73969;-66
2023/03/21 00:34:55;;;;;;;87.00;37.20;;;;;;;14.68;33.05;99923.09;108237;1250;71294;-66
2023/03/21 00:37:47;;;;;;;107.90;44.20;;;;;;;14.57;33.21;99919.87;108209;1251;72173;-67
2023/03/21 00:40:16;;;;;;;107.00;41.50;;;;;;;14.64;33.14;99919.41;108211;1250;62245;-64
2023/03/21 00:42:56;;;;;;;84.20;32.60;;;;;;;14.97;32.81;99920.36;108166;1250;61292;-64
2023/03/21 00:45:26;;;;;;;113.40;44.10;;;;;;;14.94;32.78;99920.90;108143;1250;75084;-63
2023/03/21 00:47:55;;;;;;;102.00;40.80;;;;;;;14.87;32.92;99917.73;108155;1250;71275;-64
2023/03/21 00:50:23;;;;;;;117.40;47.10;;;;;;;14.69;33.03;99913.88;108179;1250;72806;-62
2023/03/21 00:52:51;;;;;;;117.20;46.80;;;;;;;14.39;33.54;99909.52;108256;1251;62396;-63
2023/03/21 00:55:22;;;;;;;122.50;45.50;;;;;;;14.62;33.20;99906.15;108173;1251;60332;-66
2023/03/21 00:57:50;;;;;;;112.70;47.60;;;;;;;14.60;33.21;99904.48;108194;1251;75226;-64
2023/03/21 01:00:29;;;;;;;119.10;46.40;;;;;;;14.78;32.98;99903.64;108296;1251;70180;-66
2023/03/21 01:03:04;;;;;;;107.50;43.30;;;;;;;14.78;32.86;99904.11;108298;1255;73426;-66
2023/03/21 01:06:05;;;;;;;107.10;44.30;;;;;;;14.88;32.87;99904.97;108323;1253;61919;-67
2023/03/21 01:08:36;;;;;;;115.10;43.30;;;;;;;14.96;32.84;99901.17;108270;1253;60220;-64
2023/03/21 01:11:22;;;;;;;106.80;42.60;;;;;;;14.89;33.08;99896.45;108234;1251;75023;-66
2023/03/21 01:13:51;;;;;;;120.40;48.40;;;;;;;14.87;33.32;99891.60;108168;1253;71198;-65
2023/03/21 01:16:35;;;;;;;110.80;43.70;;;;;;;15.13;32.76;99891.66;108133;1256;73673;-63
2023/03/21 01:19:06;;;;;;;99.10;40.00;;;;;;;15.21;32.69;99891.73;108278;1252;62980;-63
2023/03/21 01:21:49;;;;;;;104.30;42.70;;;;;;;15.13;32.90;99886.55;108182;1251;59895;-63
2023/03/21 01:24:17;;;;;;;117.40;46.20;;;;;;;14.93;33.13;99888.07;108244;1253;75070;-64
2023/03/21 01:26:45;;;;;;;97.10;40.60;;;;;;;14.78;33.45;99891.05;108267;1253;70448;-64
2023/03/21 01:29:13;;;;;;;110.00;46.40;;;;;;;14.74;33.51;99890.63;108277;1251;72942;-64
2023/03/21 01:31:41;;;;;;;103.70;42.20;;;;;;;14.77;33.62;99887.21;108132;1254;61241;-64
2023/03/21 01:34:10;;;;;;;87.50;38.20;;;;;;;14.66;33.85;99887.53;108277;1251;60565;-65
2023/03/21 01:36:57;;;;;;;106.30;45.50;;;;;;;14.66;33.93;99883.25;108188;1251;75252;-63
2023/03/21 01:39:26;;;;;;;128.50;50.50;;;;;;;14.66;34.02;99879.55;108029;1253;178712;-64
2023/03/21 01:44:13;;;;;;;120.70;48.20;;;;;;;10.75;40.75;99889.55;104784;1290;600905;-64
2023/03/21 01:46:48;;;;;;;129.40;49.60;;;;;;;12.21;37.90;99882.86;107186;1266;59944;-62
2023/03/21 01:49:51;;;;;;;139.90;54.40;;;;;;;12.91;36.97;99877.34;107316;1265;59050;-64
2023/03/21 01:52:40;;;;;;;128.90;51.30;;;;;;;12.98;36.86;99874.71;107324;1266;73050;-65
2023/03/21 01:55:19;;;;;;;109.20;43.40;;;;;;;13.17;36.49;99876.55;107276;1267;70564;-66
2023/03/21 01:58:17;;;;;;;128.00;52.60;;;;;;;13.27;36.52;99870.20;107083;1265;133069;-69
2023/03/21 02:01:05;;;;;;;128.90;51.70;;;;;;;13.43;36.30;99869.21;107311;1264;62447;-65
2023/03/21 02:03:48;;;;;;;95.60;39.20;;;;;;;13.54;36.03;99867.92;107371;1264;61254;-64
2023/03/21 02:06:42;;;;;;;121.20;47.70;;;;;;;13.62;35.87;99863.78;107391;1264;71519;-63
2023/03/21 02:09:39;;;;;;;129.40;51.70;;;;;;;13.86;35.52;99858.42;107389;1264;71716;-65
2023/03/21 02:12:15;;;;;;;120.80;48.40;;;;;;;13.92;35.27;99856.20;107303;1264;71228;-64
2023/03/21 02:14:44;;;;;;;116.30;44.30;;;;;;;13.96;35.10;99851.35;107396;1264;63353;-65
2023/03/21 02:17:34;;;;;;;112.30;47.00;;;;;;;13.98;35.15;99848.97;107322;1264;61261;-64
2023/03/21 02:21:04;;;;;;;111.60;45.70;;;;;;;13.97;35.08;99843.86;107380;1264;73991;-65
2023/03/21 02:24:09;;;;;;;119.50;46.40;;;;;;;13.97;34.98;99842.45;107640;1259;71666;-62
2023/03/21 02:26:52;;;;;;;98.10;39.80;;;;;;;14.13;34.82;99842.46;107587;1259;73589;-65
2023/03/21 02:29:39;;;;;;;118.20;46.60;;;;;;;14.18;34.61;99837.45;108121;1253;62218;-65
2023/03/21 02:32:32;;;;;;;111.90;44.90;;;;;;;13.90;34.96;99837.04;108091;1252;61439;-64
2023/03/21 02:35:31;;;;;;;105.90;42.20;;;;;;;13.86;34.88;99835.50;108108;1252;74718;-65
2023/03/21 02:38:09;;;;;;;102.00;42.60;;;;;;;13.70;35.08;99839.05;108028;1257;70391;-64
2023/03/21 02:40:57;;;;;;;116.50;46.10;;;;;;;13.89;34.95;99834.65;108152;1253;72903;-65
2023/03/21 02:43:39;;;;;;;113.20;46.40;;;;;;;13.85;34.87;99832.70;108150;1253;62283;-63
2023/03/21 02:46:17;;;;;;;117.00;48.10;;;;;;;13.95;34.58;99836.40;108146;1253;60636;-65
2023/03/21 02:48:53;;;;;;;108.30;44.70;;;;;;;13.67;34.84;99833.71;108157;1253;73655;-65
2023/03/21 02:51:22;;;;;;;113.60;44.40;;;;;;;13.71;34.82;99834.05;108061;1253;69770;-65
2023/03/21 02:54:05;;;;;;;113.90;47.30;;;;;;;13.95;34.50;99833.41;107970;1253;70388;-66
2023/03/21 02:56:54;;;;;;;111.60;46.60;;;;;;;13.70;34.72;99833.42;108172;1253;62189;-64
2023/03/21 02:59:22;;;;;;;108.70;45.60;;;;;;;13.62;34.76;99832.59;108019;1253;60520;-65
2023/03/21 03:01:51;;;;;;;111.50;45.70;;;;;;;13.67;34.73;99834.05;107899;1254;74277;-66
2023/03/21 03:04:26;;;;;;;115.60;46.20;;;;;;;13.76;34.68;99831.49;107933;1254;69478;-65
2023/03/21 03:06:57;;;;;;;99.60;41.90;;;;;;;13.87;34.35;99832.61;108040;1256;74111;-65
2023/03/21 03:09:57;;;;;;;112.40;45.90;;;;;;;14.17;34.01;99834.63;108060;1256;62416;-64
2023/03/21 03:12:56;;;;;;;120.10;47.20;;;;;;;13.95;34.27;99830.44;107983;1254;61074;-64
2023/03/21 03:15:37;;;;;;;100.10;41.70;;;;;;;13.71;34.60;99832.29;107854;1254;73953;-65
2023/03/21 03:18:08;;;;;;;125.90;45.50;;;;;;;13.64;34.73;99835.98;108009;1254;71564;-65
2023/03/21 03:20:45;;;;;;;122.20;47.60;;;;;;;13.78;34.46;99836.98;108082;1256;73765;-65
2023/03/21 03:23:29;;;;;;;106.50;41.60;;;;;;;13.78;34.30;99834.02;108053;1257;59913;-65
2023/03/21 03:26:28;;;;;;;115.30;47.60;;;;;;;13.55;34.62;99836.98;107910;1255;61317;-65
2023/03/21 03:29:12;;;;;;;120.60;47.40;;;;;;;13.42;34.88;99836.11;107947;1254;73281;-65
2023/03/21 03:31:50;;;;;;;117.20;47.50;;;;;;;13.23;35.09;99837.98;107972;1254;71080;-64
2023/03/21 03:34:21;;;;;;;121.40;48.20;;;;;;;13.53;34.70;99839.92;107978;1256;73124;-63
2023/03/21 03:36:54;;;;;;;141.70;54.20;;;;;;;13.40;34.79;99841.33;107995;1255;62244;-65
2023/03/21 03:39:32;;;;;;;125.00;50.60;;;;;;;13.60;34.54;99844.13;107967;1254;60275;-65
2023/03/21 03:42:06;;;;;;;137.80;54.90;;;;;;;13.69;34.50;99842.63;108033;1254;71387;-64
2023/03/21 03:44:57;;;;;;;134.50;54.60;;;;;;;13.90;34.16;99839.35;107945;1255;71518;-64
2023/03/21 03:47:34;;;;;;;123.80;49.40;;;;;;;13.66;34.47;99842.92;107997;1253;73647;-66
2023/03/21 03:50:31;;;;;;;129.20;49.00;;;;;;;13.57;34.68;99842.02;107997;1256;62288;-65
2023/03/21 03:53:06;;;;;;;129.90;52.70;;;;;;;13.36;34.89;99842.78;107942;1255;61271;-65
2023/03/21 03:55:45;;;;;;;145.10;56.20;;;;;;;13.47;34.98;99840.23;107982;1256;71620;-65
2023/03/21 03:58:18;;;;;;;160.60;61.80;;;;;;;13.54;34.82;99843.74;107996;1254;70148;-66
2023/03/21 04:00:54;;;;;;;155.20;59.70;;;;;;;13.62;34.76;99839.80;107962;1257;72653;-66
2023/03/21 04:03:22;;;;;;;120.30;51.10;;;;;;;13.73;34.56;99837.81;108089;1255;60102;-65
2023/03/21 04:05:52;;;;;;;159.90;60.50;;;;;;;13.43;34.98;99839.05;107908;1256;59967;-65
2023/03/21 04:08:22;;;;;;;147.00;59.30;;;;;;;13.24;35.23;99838.32;107945;1254;72404;-65
2023/03/21 04:10:52;;;;;;;147.30;58.10;;;;;;;13.01;35.53;99837.01;108051;1256;69520;-66
2023/03/21 04:13:22;;;;;;;164.10;61.30;;;;;;;13.04;35.48;99837.02;108066;1256;73747;-63
2023/03/21 04:16:03;;;;;;;156.20;57.70;;;;;;;13.00;35.52;99836.90;107992;1256;61563;-62
2023/03/21 04:18:33;;;;;;;141.00;53.60;;;;;;;12.95;35.59;99837.16;108021;1256;61431;-66
2023/03/21 04:21:02;;;;;;;145.00;58.80;;;;;;;13.08;35.47;99834.52;108056;1254;73250;-65
2023/03/21 04:23:32;;;;;;;;;;;;;;;13.33;35.09;99834.10;107984;1256;71545;-65
2023/03/21 04:26:00;;;;;;;162.30;59.40;;;;;;;13.38;35.08;99832.10;107987;1256;73892;-64
2023/03/21 04:28:35;;;;;;;143.60;54.60;;;;;;;13.42;35.09;99834.88;107985;1254;62287;-66
2023/03/21 04:31:19;;;;;;;156.60;59.70;;;;;;;13.85;34.75;99833.65;107998;1256;60889;-65
2023/03/21 04:33:59;;;;;;;161.80;62.10;;;;;;;14.10;34.60;99832.06;108089;1254;74008;-64
2023/03/21 04:36:37;;;;;;;158.00;60.80;;;;;;;14.60;34.45;99829.55;107931;1256;69825;-65
2023/03/21 04:39:16;;;;;;;161.70;61.30;;;;;;;15.07;34.32;99831.19;108053;1256;73096;-66
2023/03/21 04:41:48;;;;;;;;;;;;;;;15.39;34.26;99827.83;107964;1256;62424;-66
2023/03/21 04:44:20;;;;;;;144.40;57.90;;;;;;;15.85;33.89;99826.39;108010;1254;61249;-66
2023/03/21 04:46:49;;;;;;;136.90;54.80;;;;;;;16.45;33.41;99824.30;107980;1256;74651;-65
2023/03/21 04:49:17;;;;;;;136.60;58.00;;;;;;;16.84;32.99;99825.77;108012;1254;69546;-65
2023/03/21 04:51:46;;;;;;;137.10;57.00;;;;;;;17.02;32.85;99823.68;107879;1254;74195;-65
2023/03/21 04:54:19;;;;;;;134.30;58.70;;;;;;;17.53;32.44;99822.07;108120;1253;60934;-65
2023/03/21 04:56:54;;;;;;;130.10;58.00;;;;;;;17.54;32.56;99822.55;108101;1253;61549;-65
2023/03/21 04:59:26;;;;;;;126.00;56.30;;;;;;;17.20;32.75;99823.33;108105;1253;72216;-66
2023/03/21 05:01:55;;;;;;;126.50;58.70;;;;;;;17.33;32.86;99824.38;108107;1253;71275;-65
2023/03/21 05:04:25;;;;;;;126.10;58.30;;;;;;;17.86;32.49;99821.72;108251;1253;73665;-66
2023/03/21 05:06:54;;;;;;;116.00;54.90;;;;;;;18.51;32.00;99826.05;108189;1253;62365;-66
2023/03/21 05:09:22;;;;;;;123.80;57.10;;;;;;;19.05;31.40;99825.11;108138;1253;61038;-66
2023/03/21 05:11:51;;;;;;;115.10;53.90;;;;;;;19.59;30.84;99824.31;108044;1253;73584;-67
2023/03/21 05:14:22;;;;;;;115.90;56.80;;;;;;;20.29;30.13;99821.36;108120;1253;69534;-67
2023/03/21 05:16:55;;;;;;;;;;;;;;;20.73;29.42;99822.00;108125;1253;72071;-66
2023/03/21 05:19:33;;;;;;;119.80;54.80;;;;;;;21.22;29.09;99821.61;108130;1253;62164;-66
2023/03/21 05:22:05;;;;;;;127.30;61.70;;;;;;;21.62;28.77;99823.66;108181;1253;61669;-66
2023/03/21 05:24:36;;;;;;;126.70;58.80;;;;;;;21.96;28.13;99824.92;108105;1253;74377;-67
2023/03/21 05:27:05;;;;;;;115.10;57.60;;;;;;;22.23;27.67;99827.16;108056;1253;70273;-66
2023/03/21 05:29:39;;;;;;;134.50;59.70;;;;;;;22.59;27.47;99834.13;108155;1253;73848;-67
2023/03/21 05:32:08;;;;;;;111.10;54.90;;;;;;;22.67;27.16;99839.46;108182;1253;60965;-66
2023/03/21 05:34:36;;;;;;;107.10;54.80;;;;;;;22.78;26.88;99841.98;108245;1253;61523;-65
2023/03/21 05:37:06;;;;;;;118.60;60.20;;;;;;;23.06;26.42;99839.98;108077;1253;73290;-67
2023/03/21 05:39:43;;;;;;;102.20;55.10;;;;;;;23.08;26.26;99842.67;108141;1256;68545;-66
2023/03/21 05:42:17;;;;;;;102.10;54.00;;;;;;;22.97;26.53;99844.00;108159;1253;72403;-66
2023/03/21 05:44:45;;;;;;;102.90;53.90;;;;;;;22.96;26.58;99843.75;108146;1255;59685;-67
2023/03/21 05:47:22;;;;;;;100.20;52.30;;;;;;;22.97;26.47;99843.85;108104;1253;61376;-65
2023/03/21 05:49:51;;;;;;;91.40;50.10;;;;;;;23.23;26.18;99843.77;108193;1253;72198;-67
2023/03/21 05:52:20;;;;;;;98.70;50.90;;;;;;;23.35;26.02;99843.86;108155;1253;71603;-66
2023/03/21 05:54:54;;;;;;;86.40;47.50;;;;;;;23.04;26.22;99842.71;108120;1254;72918;-67
2023/03/21 05:57:25;;;;;;;94.30;51.00;;;;;;;23.33;26.27;99839.92;108079;1253;61710;-67
2023/03/21 05:59:57;;;;;;;91.40;48.60;;;;;;;23.74;25.70;99836.23;108177;1253;60544;-66
2023/03/21 06:02:25;;;;;;;74.50;42.80;;;;;;;24.22;25.50;99835.09;108058;1258;72567;-67
2023/03/21 06:04:55;;;;;;;84.70;48.20;;;;;;;24.49;25.04;99835.89;108164;1253;69994;-67
2023/03/21 06:07:26;;;;;;;89.00;48.70;;;;;;;24.47;25.11;99835.52;108136;1257;73596;-67
2023/03/21 06:09:57;;;;;;;90.30;48.50;;;;;;;24.68;25.16;99831.77;108134;1253;60465;-68
2023/03/21 06:12:25;;;;;;;98.70;50.00;;;;;;;25.01;24.90;99833.27;108058;1253;61615;-67
2023/03/21 06:15:14;;;;;;;78.00;45.90;;;;;;;25.50;24.30;99827.17;108049;1258;73393;-67
2023/03/21 06:17:56;;;;;;;87.50;49.30;;;;;;;26.18;23.72;99824.02;108093;1253;69556;-67
2023/03/21 06:20:24;;;;;;;89.40;48.10;;;;;;;26.55;23.17;99826.81;108147;1253;73569;-66
2023/03/21 06:22:55;;;;;;;;;;;;;;;26.22;23.52;99826.14;108144;1254;60636;-66
2023/03/21 06:25:23;;;;;;;91.40;50.40;;;;;;;26.29;23.27;99827.16;108110;1256;60867;-65
2023/03/21 06:27:51;;;;;;;78.70;46.80;;;;;;;26.50;23.21;99822.86;108049;1259;75989;-67
2023/03/21 06:30:21;;;;;;;84.90;48.00;;;;;;;26.76;23.07;99827.84;108112;1253;71608;-66
2023/03/21 06:33:04;;;;;;;85.40;49.00;;;;;;;27.37;22.74;99829.02;108141;1253;73893;-66
2023/03/21 06:35:32;;;;;;;85.20;48.60;;;;;;;27.59;22.31;99824.02;108032;1253;60485;-66
2023/03/21 06:38:00;;;;;;;82.70;49.60;;;;;;;28.02;21.92;99820.91;108163;1253;60245;-67
2023/03/21 06:40:33;;;;;;;72.20;44.70;;;;;;;28.19;21.59;99821.23;108131;1253;74754;-65
2023/03/21 06:43:01;;;;;;;71.10;43.90;;;;;;;28.12;21.63;99823.30;108134;1253;69398;-67
2023/03/21 06:45:32;;;;;;;76.50;45.40;;;;;;;27.75;21.86;99820.69;108163;1253;73593;-65
2023/03/21 06:48:00;;;;;;;83.10;47.80;;;;;;;27.66;22.12;99820.84;108126;1253;61446;-68
2023/03/21 06:50:42;;;;;;;74.20;44.40;;;;;;;27.83;22.01;99815.48;108147;1253;61496;-66
2023/03/21 06:53:11;;;;;;;77.20;47.60;;;;;;;27.81;22.10;99811.15;107952;1253;74620;-67
2023/03/21 06:56:02;;;;;;;72.00;44.70;;;;;;;27.98;22.06;99811.63;108137;1254;72117;-66
2023/03/21 06:58:31;;;;;;;73.30;46.40;;;;;;;28.03;22.07;99808.04;108145;1255;71026;-66
2023/03/21 07:01:01;;;;;;;81.00;48.60;;;;;;;28.23;21.95;99803.43;108150;1256;61580;-67
2023/03/21 07:03:34;;;;;;;80.40;47.60;;;;;;;28.81;21.62;99799.56;108032;1254;61396;-65
2023/03/21 07:06:10;;;;;;;81.40;49.20;;;;;;;29.46;21.23;99799.84;108116;1254;74118;-66
2023/03/21 07:08:39;;;;;;;83.30;49.10;;;;;;;29.80;20.54;99799.32;107981;1258;70114;-66
2023/03/21 07:11:08;;;;;;;77.00;46.30;;;;;;;29.96;20.56;99801.80;108038;1257;73719;-66
2023/03/21 07:13:38;;;;;;;82.30;45.80;;;;;;;30.10;20.40;99803.63;107889;1254;61894;-67
2023/03/21 07:16:07;;;;;;;66.20;42.40;;;;;;;29.88;20.45;99802.50;108004;1254;61464;-70
2023/03/21 07:18:37;;;;;;;73.80;43.80;;;;;;;29.88;20.52;99805.45;107991;1254;74191;-65
2023/03/21 07:21:05;;;;;;;64.80;41.40;;;;;;;30.61;20.04;99803.35;108044;1259;71656;-66
2023/03/21 07:23:33;;;;;;;73.60;46.00;;;;;;;31.14;19.73;99800.95;107949;1254;73924;-66
2023/03/21 07:26:04;;;;;;;67.70;42.10;;;;;;;31.19;19.61;99797.77;108014;1256;60437;-65
2023/03/21 07:28:33;;;;;;;67.90;45.70;;;;;;;31.14;19.62;99798.59;107920;1254;60512;-66
2023/03/21 07:31:04;;;;;;;62.60;39.40;;;;;;;31.20;19.77;99798.02;107933;1256;73950;-67
2023/03/21 07:33:32;;;;;;;66.80;41.00;;;;;;;31.30;19.47;99798.60;108157;1254;71265;-68
2023/03/21 07:36:01;;;;;;;72.10;42.70;;;;;;;31.56;19.35;99797.86;108040;1254;73743;-68
2023/03/21 07:38:36;;;;;;;68.90;43.60;;;;;;;31.68;19.41;99790.88;107905;1254;60930;-66
2023/03/21 07:41:04;;;;;;;63.60;41.10;;;;;;;31.81;19.24;99788.50;107928;1254;59883;-67
2023/03/21 07:43:34;;;;;;;66.60;40.10;;;;;;;31.85;19.08;99790.59;108080;1254;74071;-65
2023/03/21 07:46:09;;;;;;;68.70;43.10;;;;;;;31.83;19.13;99791.06;108028;1256;71525;-64
2023/03/21 07:48:38;;;;;;;63.60;41.80;;;;;;;31.95;19.03;99794.77;108051;1255;72067;-66
2023/03/21 07:51:06;;;;;;;72.10;44.90;;;;;;;32.19;18.83;99791.58;108094;1254;61696;-66
2023/03/21 07:53:40;;;;;;;64.30;39.90;;;;;;;32.07;18.88;99794.77;108060;1254;60544;-64
2023/03/21 07:56:09;;;;;;;58.10;34.40;;;;;;;31.93;18.77;99798.61;108088;1254;73443;-66
2023/03/21 07:58:42;;;;;;;67.10;41.20;;;;;;;31.48;19.21;99798.98;108074;1254;69770;-66
2023/03/21 08:01:11;;;;;;;59.50;38.20;;;;;;;31.27;19.32;99800.38;108071;1254;71549;-67
2023/03/21 08:03:39;;;;;;;62.30;38.30;;;;;;;31.07;19.49;99797.71;108009;1256;61417;-66
2023/03/21 08:06:08;;;;;;;53.70;35.60;;;;;;;31.39;19.43;99799.89;107997;1254;60331;-68
2023/03/21 08:08:37;;;;;;;55.80;33.90;;;;;;;31.72;18.97;99793.77;108034;1254;75091;-67
2023/03/21 08:11:05;;;;;;;66.30;35.80;;;;;;;31.89;19.12;99795.34;107993;1254;70342;-66
2023/03/21 08:13:34;;;;;;;55.90;34.80;;;;;;;32.08;18.85;99793.14;108118;1254;73912;-66
2023/03/21 08:16:04;;;;;;;50.40;31.50;;;;;;;32.21;18.62;99796.19;108025;1254;60459;-67
2023/03/21 08:18:32;;;;;;;55.40;33.40;;;;;;;32.28;18.62;99793.81;108110;1256;60298;-67
2023/03/21 08:21:02;;;;;;;50.50;34.30;;;;;;;32.41;18.50;99791.42;107951;1254;74882;-65
2023/03/21 08:23:31;;;;;;;48.80;30.60;;;;;;;32.30;18.50;99789.30;108082;1256;70155;-66
2023/03/21 08:26:00;;;;;;;48.90;32.30;;;;;;;32.17;18.55;99786.73;108051;1256;73696;-66
2023/03/21 08:28:29;;;;;;;48.50;30.80;;;;;;;32.15;18.60;99782.17;108065;1256;61677;-67
2023/03/21 08:30:57;;;;;;;51.20;31.40;;;;;;;32.69;18.46;99775.34;108100;1255;60155;-67
2023/03/21 08:33:26;;;;;;;53.30;34.10;;;;;;;33.66;17.77;99769.66;108045;1255;73943;-68
2023/03/21 08:35:58;;;;;;;56.40;35.20;;;;;;;34.17;17.08;99769.15;108048;1254;70490;-67
2023/03/21 08:38:32;;;;;;;46.20;30.10;;;;;;;34.31;17.03;99768.77;108029;1254;71974;-67
2023/03/21 08:41:00;;;;;;;46.20;28.90;;;;;;;34.31;17.00;99767.59;108061;1258;60344;-64
2023/03/21 08:43:29;;;;;;;43.20;26.10;;;;;;;34.16;17.10;99772.85;108061;1257;60373;-66
2023/03/21 08:45:57;;;;;;;48.60;28.80;;;;;;;33.93;17.07;99768.92;107953;1259;74122;-67
2023/03/21 08:48:26;;;;;;;42.10;28.50;;;;;;;34.11;16.85;99769.05;108095;1254;69667;-67
2023/03/21 08:50:54;;;;;;;44.30;28.60;;;;;;;34.70;16.69;99767.61;108056;1256;72080;-68
2023/03/21 08:53:22;;;;;;;45.50;28.80;;;;;;;34.97;16.50;99769.48;108047;1254;60357;-67
2023/03/21 08:55:51;;;;;;;41.90;27.80;;;;;;;35.10;16.35;99765.02;108163;1253;60396;-67
2023/03/21 08:58:20;;;;;;;44.30;26.10;;;;;;;35.06;16.11;99762.70;108164;1254;65924;-66
2023/03/21 09:00:48;;;;;;;43.90;28.60;;;;;;;35.48;15.89;99763.66;108100;1253;71415;-67
2023/03/21 09:03:16;;;;;;;45.20;26.20;;;;;;;35.29;15.90;99763.36;108185;1257;65119;-67
2023/03/21 09:05:45;;;;;;;44.40;25.80;;;;;;;35.42;16.08;99762.70;108146;1253;59560;-69
2023/03/21 09:08:13;;;;;;;38.70;25.70;;;;;;;35.42;15.81;99757.36;108131;1254;59606;-67
2023/03/21 09:10:41;;;;;;;38.40;23.30;;;;;;;35.19;16.15;99755.38;108195;1256;66237;-69
2023/03/21 09:13:16;;;;;;;40.90;25.50;;;;;;;35.43;15.94;99753.02;108103;1257;62478;-67
2023/03/21 09:15:44;;;;;;;38.70;24.70;;;;;;;35.79;15.63;99752.14;108096;1254;72111;-67
2023/03/21 09:18:15;;;;;;;36.40;23.10;;;;;;;35.86;15.83;99753.01;108102;1256;60342;-68
2023/03/21 09:20:45;;;;;;;41.10;25.00;;;;;;;36.03;15.50;99746.67;108155;1255;60427;-67
2023/03/21 09:23:14;;;;;;;41.60;24.80;;;;;;;35.82;15.52;99747.40;108147;1253;66227;-67
2023/03/21 09:25:44;;;;;;;34.30;22.80;;;;;;;36.32;15.36;99749.95;108259;1256;62337;-68
2023/03/21 09:28:13;;;;;;;43.40;26.20;;;;;;;36.91;15.03;99752.59;108201;1254;64153;-68
2023/03/21 09:30:42;;;;;;;39.20;24.40;;;;;;;37.12;14.81;99749.64;108171;1254;60396;-68
2023/03/21 09:33:20;;;;;;;35.40;21.60;;;;;;;36.58;14.89;99754.29;108094;1254;60109;-67
2023/03/21 09:35:49;;;;;;;34.90;22.40;;;;;;;36.05;15.05;99752.48;108111;1253;66161;-66
2023/03/21 09:38:19;;;;;;;31.80;20.20;;;;;;;36.03;15.23;99746.78;108168;1256;62345;-68
2023/03/21 09:41:01;;;;;;;34.00;21.50;;;;;;;36.04;15.15;99744.78;108175;1254;64633;-67
2023/03/21 09:43:48;;;;;;;32.00;21.90;;;;;;;36.06;15.31;99749.48;108110;1256;60438;-68
2023/03/21 09:46:41;;;;;;;36.20;23.50;;;;;;;36.30;15.04;99743.61;108126;1254;60414;-66
2023/03/21 09:49:30;;;;;;;35.40;22.80;;;;;;;36.02;15.19;99746.02;108142;1256;66472;-68
2023/03/21 09:52:05;;;;;;;36.20;22.70;;;;;;;36.07;15.11;99743.14;108126;1257;61345;-67
2023/03/21 09:54:38;;;;;;;33.80;21.00;;;;;;;35.97;15.09;99740.41;108054;1256;64718;-67
2023/03/21 09:57:38;;;;;;;45.90;27.90;;;;;;;35.71;15.17;99745.06;108021;1255;60179;-68
2023/03/21 10:00:15;;;;;;;47.20;27.50;;;;;;;35.50;15.25;99743.92;108055;1259;60280;-66
2023/03/21 10:02:46;;;;;;;44.70;26.90;;;;;;;35.56;15.44;99747.14;107965;1254;66320;-66
2023/03/21 10:05:24;;;;;;;41.10;25.80;;;;;;;35.43;15.52;99744.02;108072;1254;71587;-67
2023/03/21 10:07:54;;;;;;;37.60;24.00;;;;;;;35.36;15.80;99743.49;108053;1258;65238;-66
2023/03/21 10:10:27;;;;;;;35.50;21.30;;;;;;;34.46;16.26;99747.45;108051;1257;60314;-67
2023/03/21 10:13:26;;;;;;;42.80;23.20;;;;;;;34.31;15.94;99741.91;107979;1258;63012;-67
2023/03/21 10:16:12;;;;;;;43.30;27.20;;;;;;;33.90;16.40;99749.38;107965;1256;74875;-66
2023/03/21 10:18:41;;;;;;;45.30;24.40;;;;;;;33.81;16.74;99747.88;108050;1254;71310;-67
2023/03/21 10:21:15;;;;;;;36.90;21.50;;;;;;;34.08;16.45;99746.26;108045;1254;73598;-68
2023/03/21 10:24:05;;;;;;;34.40;20.50;;;;;;;33.99;16.12;99745.35;107939;1259;60432;-67
2023/03/21 10:26:33;;;;;;;35.20;20.60;;;;;;;34.54;15.87;99743.25;108015;1254;61240;-68
2023/03/21 10:29:01;;;;;;;33.30;21.60;;;;;;;34.84;15.38;99744.77;108005;1257;74773;-68
2023/03/21 10:31:30;;;;;;;34.60;21.20;;;;;;;35.00;15.58;99737.50;107877;1255;62819;-66
2023/03/21 10:34:11;;;;;;;38.90;24.10;;;;;;;35.46;15.74;99735.41;107964;1254;71893;-67
2023/03/21 10:36:40;;;;;;;41.50;25.60;;;;;;;35.62;15.53;99734.00;107956;1254;60585;-67
2023/03/21 10:39:17;;;;;;;41.60;23.80;;;;;;;34.32;16.22;99735.56;107894;1254;60532;-68
2023/03/21 10:41:45;;;;;;;39.30;25.30;;;;;;;34.08;16.51;99732.75;108113;1254;74160;-67
2023/03/21 10:44:16;;;;;;;41.60;24.80;;;;;;;34.53;16.03;99731.00;107931;1254;70278;-68
2023/03/21 10:46:54;;;;;;;46.20;26.00;;;;;;;35.06;16.10;99729.11;108070;1257;64209;-68
2023/03/21 10:49:25;;;;;;;39.30;24.40;;;;;;;35.57;15.70;99723.88;107983;1254;60485;-67
2023/03/21 10:51:55;;;;;;;36.90;23.90;;;;;;;35.82;15.22;99720.02;107998;1258;60316;-66
2023/03/21 10:54:31;;;;;;;43.50;25.00;;;;;;;35.89;15.16;99719.16;108036;1254;66190;-67
2023/03/21 10:57:02;;;;;;;46.50;26.70;;;;;;;36.34;15.13;99717.55;108094;1254;63022;-69
2023/03/21 10:59:43;;;;;;;51.50;27.90;;;;;;;36.06;15.26;99715.79;108139;1253;64730;-68
2023/03/21 11:02:19;;;;;;;50.60;28.70;;;;;;;35.42;15.75;99717.80;108136;1254;60426;-68
2023/03/21 11:04:49;;;;;;;49.00;29.50;;;;;;;35.29;16.04;99713.05;108147;1255;60493;-68
2023/03/21 11:07:18;;;;;;;39.20;24.20;;;;;;;35.40;15.83;99708.07;108154;1254;66268;-67
2023/03/21 11:09:55;;;;;;;42.20;25.00;;;;;;;35.33;15.91;99707.43;108162;1253;63126;-66
2023/03/21 11:12:33;;;;;;;42.40;24.50;;;;;;;35.09;15.91;99709.52;108079;1254;65033;-67
2023/03/21 11:15:31;;;;;;;44.00;25.90;;;;;;;34.92;16.20;99702.43;108097;1253;61577;-68
2023/03/21 11:18:17;;;;;;;47.20;26.80;;;;;;;35.06;16.04;99702.49;107972;1254;60600;-69
2023/03/21 11:21:15;;;;;;;45.90;28.00;;;;;;;34.77;16.00;99697.41;108114;1254;72753;-67
2023/03/21 11:23:48;;;;;;;44.10;27.30;;;;;;;34.68;16.27;99698.98;108038;1253;63062;-67
2023/03/21 11:26:22;;;;;;;42.60;26.50;;;;;;;34.56;16.33;99697.67;108157;1253;65063;-69
2023/03/21 11:28:52;;;;;;;42.50;26.10;;;;;;;34.70;16.46;99697.81;108007;1254;61251;-67
2023/03/21 11:31:25;;;;;;;41.60;24.60;;;;;;;34.50;16.45;99693.68;108137;1255;60419;-68
2023/03/21 11:33:58;;;;;;;37.50;22.60;;;;;;;34.52;16.18;99694.77;108014;1254;74954;-69
2023/03/21 11:36:32;;;;;;;38.60;23.90;;;;;;;35.21;15.32;99692.28;108056;1254;62721;-68
2023/03/21 11:39:10;;;;;;;34.80;23.10;;;;;;;34.90;15.73;99695.84;108073;1252;64949;-69
2023/03/21 11:41:39;;;;;;;35.30;24.00;;;;;;;34.81;15.52;99694.19;108108;1257;60312;-67
2023/03/21 11:44:32;;;;;;;37.30;22.30;;;;;;;35.32;15.41;99692.77;108147;1254;59143;-66